Terminal Aerodrome Forecast
Issued by NWS Jackson, MS

Home | Current Version | Previous Version | Text Only | Print | Product List | Glossary On
Versions: 1 2 3 4 5 6 7 8 9 10 11 12 13
000
FTUS44 KJAN 292300
TAFHBG
TAF
KHBG 292320Z 3000/3024 22004KT P6SM -RA BKN060 BKN120
     FM300900 00000KT 4SM BR FEW020
     FM301300 18008KT P6SM BKN040
     FM301800 19012G18KT P6SM -RA VCTS OVC050CB=

USA.gov is the U.S. government's official web portal to all federal, state and local government web resources and services.